KLM342 EDDM-EPWR
Flight info
| Callsign | KLM342 |
|---|---|
| Flight time | N/A |
| Altitude | 35000 |
| Route | ANKER9N/26R ANKER Y104 MAMOR L132 RUDNO T203 TIVDA DCT LEGAZ DCT LAGAR DCT DINOV |
| Aircraft | B738/M-SDE2E3FGHIR/S |
Departure
| Time | 2026-05-07 12:12 |
|---|---|
| Airport | Munich Airport (EDDM) |
Arrival
| Time | N/A |
|---|---|
| Airport | Copernicus Wrocław Airport (EPWR) |
| Time | Latitude | Longitude | Altitude | Speed | Heading |
|---|---|---|---|---|---|
| 2026-05-07 11:45 | 48.34948 | 11.78391 | 1499 ft | 0 kts | 90° |
| 2026-05-07 11:53 | 48.34948 | 11.78381 | 1499 ft | 2 kts | 90° |
| 2026-05-07 11:53 | 48.34948 | 11.78356 | 1499 ft | 3 kts | 90° |
| 2026-05-07 11:53 | 48.34946 | 11.78327 | 1499 ft | 3 kts | 71° |
| 2026-05-07 11:54 | 48.34935 | 11.78301 | 1499 ft | 3 kts | 46° |
| 2026-05-07 11:54 | 48.34919 | 11.78283 | 1499 ft | 3 kts | 24° |
| 2026-05-07 11:54 | 48.34899 | 11.78275 | 1499 ft | 3 kts | 4° |
| 2026-05-07 11:54 | 48.34895 | 11.78275 | 1499 ft | 0 kts | 1° |
| 2026-05-07 11:56 | 48.34900 | 11.78275 | 1499 ft | 2 kts | 0° |
| 2026-05-07 11:57 | 48.34918 | 11.78273 | 1499 ft | 6 kts | 356° |
| 2026-05-07 11:57 | 48.34987 | 11.78258 | 1499 ft | 11 kts | 349° |
| 2026-05-07 11:57 | 48.35063 | 11.78242 | 1499 ft | 11 kts | 353° |
| 2026-05-07 11:57 | 48.35136 | 11.78229 | 1499 ft | 10 kts | 353° |
| 2026-05-07 11:58 | 48.35205 | 11.78218 | 1499 ft | 10 kts | 354° |
| 2026-05-07 11:58 | 48.35270 | 11.78208 | 1499 ft | 9 kts | 354° |
| 2026-05-07 11:58 | 48.35333 | 11.78199 | 1499 ft | 9 kts | 354° |
| 2026-05-07 11:58 | 48.35382 | 11.78181 | 1499 ft | 6 kts | 314° |
| 2026-05-07 11:59 | 48.35395 | 11.78133 | 1499 ft | 5 kts | 275° |
| 2026-05-07 11:59 | 48.35396 | 11.78085 | 1499 ft | 5 kts | 268° |
| 2026-05-07 11:59 | 48.35388 | 11.78015 | 1499 ft | 9 kts | 255° |
| 2026-05-07 11:59 | 48.35371 | 11.77911 | 1499 ft | 12 kts | 258° |
| 2026-05-07 12:00 | 48.35369 | 11.77893 | 1499 ft | 0 kts | 259° |
| 2026-05-07 12:00 | 48.35369 | 11.77892 | 1499 ft | 1 kts | 259° |
| 2026-05-07 12:00 | 48.35365 | 11.77835 | 1499 ft | 10 kts | 275° |
| 2026-05-07 12:00 | 48.35405 | 11.77771 | 1499 ft | 6 kts | 338° |
| 2026-05-07 12:01 | 48.35457 | 11.77758 | 1499 ft | 11 kts | 356° |
| 2026-05-07 12:01 | 48.35557 | 11.77750 | 1499 ft | 14 kts | 354° |
| 2026-05-07 12:01 | 48.35645 | 11.77733 | 1499 ft | 13 kts | 353° |
| 2026-05-07 12:01 | 48.35737 | 11.77718 | 1499 ft | 14 kts | 354° |
| 2026-05-07 12:02 | 48.35834 | 11.77703 | 1499 ft | 14 kts | 354° |
| 2026-05-07 12:02 | 48.35935 | 11.77686 | 1499 ft | 12 kts | 354° |
| 2026-05-07 12:02 | 48.36020 | 11.77669 | 1499 ft | 13 kts | 355° |
| 2026-05-07 12:02 | 48.36077 | 11.77736 | 1499 ft | 11 kts | 83° |
| 2026-05-07 12:03 | 48.36087 | 11.77857 | 1499 ft | 12 kts | 83° |
| 2026-05-07 12:03 | 48.36097 | 11.77985 | 1499 ft | 13 kts | 83° |
| 2026-05-07 12:03 | 48.36107 | 11.78121 | 1499 ft | 13 kts | 84° |
| 2026-05-07 12:03 | 48.36117 | 11.78263 | 1499 ft | 14 kts | 84° |
| 2026-05-07 12:04 | 48.36129 | 11.78412 | 1499 ft | 15 kts | 83° |
| 2026-05-07 12:04 | 48.36142 | 11.78569 | 1499 ft | 15 kts | 83° |
| 2026-05-07 12:04 | 48.36154 | 11.78733 | 1499 ft | 16 kts | 83° |
| 2026-05-07 12:04 | 48.36167 | 11.78904 | 1499 ft | 17 kts | 83° |
| 2026-05-07 12:05 | 48.36181 | 11.79082 | 1499 ft | 18 kts | 84° |
| 2026-05-07 12:05 | 48.36195 | 11.79268 | 1499 ft | 18 kts | 83° |
| 2026-05-07 12:05 | 48.36211 | 11.79462 | 1499 ft | 19 kts | 83° |
| 2026-05-07 12:05 | 48.36226 | 11.79664 | 1499 ft | 20 kts | 82° |
| 2026-05-07 12:06 | 48.36241 | 11.79847 | 1499 ft | 17 kts | 83° |
| 2026-05-07 12:06 | 48.36254 | 11.80023 | 1499 ft | 17 kts | 84° |
| 2026-05-07 12:06 | 48.36268 | 11.80205 | 1499 ft | 18 kts | 84° |
| 2026-05-07 12:06 | 48.36283 | 11.80398 | 1499 ft | 19 kts | 83° |
| 2026-05-07 12:07 | 48.36298 | 11.80595 | 1499 ft | 20 kts | 83° |
| 2026-05-07 12:07 | 48.36314 | 11.80797 | 1499 ft | 18 kts | 83° |
| 2026-05-07 12:07 | 48.36328 | 11.80985 | 1499 ft | 18 kts | 83° |
| 2026-05-07 12:07 | 48.36343 | 11.81181 | 1499 ft | 19 kts | 83° |
| 2026-05-07 12:08 | 48.36359 | 11.81385 | 1499 ft | 20 kts | 84° |
| 2026-05-07 12:08 | 48.36375 | 11.81591 | 1499 ft | 19 kts | 82° |
| 2026-05-07 12:08 | 48.36390 | 11.81767 | 1499 ft | 15 kts | 83° |
| 2026-05-07 12:08 | 48.36400 | 11.81889 | 1499 ft | 7 kts | 84° |
| 2026-05-07 12:09 | 48.36406 | 11.81965 | 1499 ft | 6 kts | 75° |
| 2026-05-07 12:09 | 48.36433 | 11.82005 | 1499 ft | 10 kts | 17° |
| 2026-05-07 12:09 | 48.36520 | 11.82003 | 1499 ft | 10 kts | 353° |
| 2026-05-07 12:09 | 48.36587 | 11.81991 | 1499 ft | 9 kts | 352° |
| 2026-05-07 12:10 | 48.36646 | 11.81976 | 1499 ft | 8 kts | 336° |
| 2026-05-07 12:10 | 48.36670 | 11.81919 | 1499 ft | 6 kts | 276° |
| 2026-05-07 12:10 | 48.36669 | 11.81885 | 1499 ft | 0 kts | 265° |
| 2026-05-07 12:11 | 48.36669 | 11.81884 | 1499 ft | 0 kts | 265° |
| 2026-05-07 12:11 | 48.36666 | 11.81829 | 1499 ft | 21 kts | 266° |
| 2026-05-07 12:12 | 48.36624 | 11.81207 | 1499 ft | 99 kts | 262° |
| 2026-05-07 12:12 | 48.36508 | 11.79805 | 1536 ft | 167 kts | 265° |
| 2026-05-07 12:12 | 48.36378 | 11.78046 | 1903 ft | 169 kts | 264° |
| 2026-05-07 12:12 | 48.36227 | 11.76245 | 2307 ft | 178 kts | 264° |
| 2026-05-07 12:13 | 48.36069 | 11.74356 | 2743 ft | 184 kts | 264° |
| 2026-05-07 12:13 | 48.35909 | 11.72435 | 3226 ft | 186 kts | 264° |
| 2026-05-07 12:13 | 48.35777 | 11.70495 | 3705 ft | 190 kts | 264° |
| 2026-05-07 12:13 | 48.35784 | 11.68481 | 4159 ft | 203 kts | 281° |
| 2026-05-07 12:14 | 48.36564 | 11.66688 | 4714 ft | 214 kts | 314° |
| 2026-05-07 12:14 | 48.37906 | 11.65603 | 5340 ft | 227 kts | 333° |
| 2026-05-07 12:14 | 48.39450 | 11.64905 | 5923 ft | 236 kts | 341° |
| 2026-05-07 12:14 | 48.41091 | 11.64411 | 6589 ft | 244 kts | 343° |
| 2026-05-07 12:15 | 48.42775 | 11.63932 | 7231 ft | 251 kts | 343° |
| 2026-05-07 12:15 | 48.44541 | 11.63420 | 7915 ft | 265 kts | 344° |
| 2026-05-07 12:15 | 48.46417 | 11.63186 | 8514 ft | 280 kts | 1° |
| 2026-05-07 12:15 | 48.48285 | 11.64226 | 9199 ft | 296 kts | 28° |
| 2026-05-07 12:16 | 48.49739 | 11.66476 | 9888 ft | 305 kts | 56° |
| 2026-05-07 12:16 | 48.50468 | 11.69503 | 10638 ft | 310 kts | 78° |
| 2026-05-07 12:16 | 48.50762 | 11.72773 | 11396 ft | 321 kts | 84° |
| 2026-05-07 12:16 | 48.51074 | 11.76171 | 12152 ft | 333 kts | 82° |
| 2026-05-07 12:17 | 48.51485 | 11.79678 | 12842 ft | 347 kts | 80° |
| 2026-05-07 12:17 | 48.51943 | 11.83294 | 13443 ft | 363 kts | 80° |
| 2026-05-07 12:17 | 48.52426 | 11.87121 | 14062 ft | 378 kts | 80° |
| 2026-05-07 12:17 | 48.52925 | 11.91085 | 14669 ft | 391 kts | 80° |
| 2026-05-07 12:18 | 48.53463 | 11.95151 | 15241 ft | 400 kts | 77° |
| 2026-05-07 12:18 | 48.54594 | 11.99000 | 15792 ft | 403 kts | 57° |
| 2026-05-07 12:18 | 48.56522 | 12.02057 | 16356 ft | 405 kts | 35° |
| 2026-05-07 12:18 | 48.59091 | 12.03787 | 17036 ft | 407 kts | 12° |
| 2026-05-07 12:19 | 48.61899 | 12.04441 | 17796 ft | 410 kts | 7° |
| 2026-05-07 12:19 | 48.64684 | 12.05463 | 18415 ft | 415 kts | 17° |
| 2026-05-07 12:19 | 48.67370 | 12.07128 | 19105 ft | 420 kts | 23° |
| 2026-05-07 12:19 | 48.70000 | 12.08970 | 19771 ft | 425 kts | 24° |
| 2026-05-07 12:20 | 48.72737 | 12.10869 | 20426 ft | 429 kts | 24° |
| 2026-05-07 12:20 | 48.75429 | 12.12738 | 21077 ft | 433 kts | 24° |
| 2026-05-07 12:20 | 48.78165 | 12.14704 | 21731 ft | 437 kts | 25° |
| 2026-05-07 12:20 | 48.80918 | 12.16691 | 22384 ft | 440 kts | 25° |
| 2026-05-07 12:21 | 48.83687 | 12.18687 | 23035 ft | 441 kts | 25° |
| 2026-05-07 12:21 | 48.86467 | 12.20694 | 23689 ft | 442 kts | 25° |
| 2026-05-07 12:21 | 48.89249 | 12.22696 | 24333 ft | 442 kts | 24° |
| 2026-05-07 12:21 | 48.92039 | 12.24654 | 24970 ft | 442 kts | 24° |
| 2026-05-07 12:22 | 48.94830 | 12.26616 | 25590 ft | 442 kts | 24° |
| 2026-05-07 12:22 | 48.97636 | 12.28592 | 26021 ft | 447 kts | 24° |
| 2026-05-07 12:22 | 49.00466 | 12.30589 | 26450 ft | 450 kts | 24° |
| 2026-05-07 12:22 | 49.03317 | 12.32603 | 26921 ft | 452 kts | 24° |
| 2026-05-07 12:23 | 49.06168 | 12.34619 | 27421 ft | 452 kts | 24° |
| 2026-05-07 12:23 | 49.09031 | 12.36646 | 27918 ft | 453 kts | 25° |
| 2026-05-07 12:23 | 49.11902 | 12.38682 | 28273 ft | 457 kts | 25° |
| 2026-05-07 12:23 | 49.14795 | 12.40736 | 28594 ft | 461 kts | 25° |
| 2026-05-07 12:24 | 49.17676 | 12.42780 | 28941 ft | 463 kts | 24° |
| 2026-05-07 12:24 | 49.20609 | 12.44870 | 29265 ft | 465 kts | 24° |
| 2026-05-07 12:24 | 49.23541 | 12.46961 | 29575 ft | 465 kts | 24° |
| 2026-05-07 12:24 | 49.26476 | 12.49056 | 29882 ft | 465 kts | 24° |
| 2026-05-07 12:25 | 49.29408 | 12.51151 | 30197 ft | 464 kts | 24° |
| 2026-05-07 12:25 | 49.32329 | 12.53265 | 30497 ft | 464 kts | 26° |
| 2026-05-07 12:25 | 49.35089 | 12.55811 | 30783 ft | 464 kts | 34° |
| 2026-05-07 12:25 | 49.37675 | 12.58784 | 31128 ft | 464 kts | 37° |
| 2026-05-07 12:26 | 49.40245 | 12.61789 | 31436 ft | 465 kts | 37° |
| 2026-05-07 12:26 | 49.42818 | 12.64801 | 31731 ft | 465 kts | 39° |
| 2026-05-07 12:26 | 49.45166 | 12.68217 | 32027 ft | 465 kts | 47° |
| 2026-05-07 12:26 | 49.47340 | 12.71908 | 32366 ft | 465 kts | 49° |
| 2026-05-07 12:27 | 49.48776 | 12.74364 | 32569 ft | 466 kts | 49° |
| 2026-05-07 12:27 | 49.51666 | 12.79252 | 32980 ft | 466 kts | 48° |
| 2026-05-07 12:27 | 49.53851 | 12.82948 | 33295 ft | 466 kts | 48° |
| 2026-05-07 12:27 | 49.56036 | 12.86648 | 33603 ft | 467 kts | 48° |
| 2026-05-07 12:28 | 49.58218 | 12.90349 | 33917 ft | 467 kts | 48° |
| 2026-05-07 12:28 | 49.59697 | 12.92860 | 34127 ft | 467 kts | 49° |
| 2026-05-07 12:28 | 49.61853 | 12.96526 | 34433 ft | 467 kts | 49° |
| 2026-05-07 12:28 | 49.64035 | 13.00241 | 34748 ft | 468 kts | 49° |
| 2026-05-07 12:29 | 49.66221 | 13.03967 | 34975 ft | 470 kts | 49° |
| 2026-05-07 12:29 | 49.70656 | 13.11545 | 34966 ft | 479 kts | 49° |
| 2026-05-07 12:30 | 49.75127 | 13.19208 | 34963 ft | 479 kts | 49° |
| 2026-05-07 12:30 | 49.79595 | 13.26888 | 34963 ft | 479 kts | 49° |
| 2026-05-07 12:31 | 49.84033 | 13.34538 | 34963 ft | 480 kts | 49° |
| 2026-05-07 12:31 | 49.88499 | 13.42260 | 34966 ft | 481 kts | 49° |
| 2026-05-07 12:32 | 49.92960 | 13.49999 | 34965 ft | 481 kts | 49° |
| 2026-05-07 12:32 | 49.97415 | 13.57748 | 34964 ft | 480 kts | 49° |
| 2026-05-07 12:33 | 50.04064 | 13.69357 | 34963 ft | 480 kts | 50° |
| 2026-05-07 12:33 | 50.08501 | 13.77134 | 34965 ft | 480 kts | 50° |
| 2026-05-07 12:34 | 50.12933 | 13.84925 | 34963 ft | 480 kts | 50° |
| 2026-05-07 12:34 | 50.17367 | 13.92744 | 34963 ft | 481 kts | 50° |
| 2026-05-07 12:35 | 50.21775 | 14.00541 | 34963 ft | 481 kts | 50° |
| 2026-05-07 12:35 | 50.26201 | 14.08393 | 34964 ft | 481 kts | 50° |
| 2026-05-07 12:36 | 50.30619 | 14.16256 | 34965 ft | 481 kts | 50° |
| 2026-05-07 12:36 | 50.35039 | 14.24145 | 34964 ft | 482 kts | 50° |
| 2026-05-07 12:37 | 50.39451 | 14.32044 | 34965 ft | 481 kts | 50° |
| 2026-05-07 12:37 | 50.43865 | 14.39971 | 34965 ft | 482 kts | 50° |
| 2026-05-07 12:38 | 50.48242 | 14.47857 | 34963 ft | 482 kts | 50° |
| 2026-05-07 12:38 | 50.52648 | 14.55819 | 34964 ft | 483 kts | 51° |
| 2026-05-07 12:39 | 50.57052 | 14.63801 | 34963 ft | 482 kts | 51° |
| 2026-05-07 12:39 | 50.59251 | 14.67797 | 34861 ft | 483 kts | 51° |
| 2026-05-07 12:39 | 50.61450 | 14.71800 | 34351 ft | 482 kts | 51° |
| 2026-05-07 12:40 | 50.63643 | 14.75796 | 33833 ft | 481 kts | 51° |
| 2026-05-07 12:40 | 50.65746 | 14.79888 | 33276 ft | 479 kts | 58° |
| 2026-05-07 12:40 | 50.67235 | 14.84493 | 33014 ft | 464 kts | 73° |
| 2026-05-07 12:40 | 50.68257 | 14.89186 | 32845 ft | 456 kts | 75° |
| 2026-05-07 12:41 | 50.69344 | 14.93967 | 32509 ft | 471 kts | 73° |
| 2026-05-07 12:41 | 50.70520 | 14.98843 | 32122 ft | 479 kts | 73° |
| 2026-05-07 12:41 | 50.71705 | 15.03775 | 31545 ft | 480 kts | 73° |
| 2026-05-07 12:41 | 50.72888 | 15.08718 | 30878 ft | 482 kts | 73° |
| 2026-05-07 12:42 | 50.74059 | 15.13629 | 30197 ft | 475 kts | 74° |
| 2026-05-07 12:42 | 50.75211 | 15.18472 | 29510 ft | 466 kts | 74° |
| 2026-05-07 12:42 | 50.76347 | 15.23254 | 28846 ft | 465 kts | 74° |
| 2026-05-07 12:42 | 50.77487 | 15.28064 | 28188 ft | 467 kts | 74° |
| 2026-05-07 12:43 | 50.78625 | 15.32880 | 27527 ft | 466 kts | 74° |
| 2026-05-07 12:43 | 50.79744 | 15.37665 | 26853 ft | 461 kts | 75° |
| 2026-05-07 12:43 | 50.80643 | 15.42409 | 26203 ft | 454 kts | 78° |
| 2026-05-07 12:43 | 50.81510 | 15.47194 | 25538 ft | 449 kts | 78° |
| 2026-05-07 12:44 | 50.82393 | 15.51908 | 24873 ft | 444 kts | 77° |
| 2026-05-07 12:44 | 50.83121 | 15.56605 | 24189 ft | 436 kts | 84° |
| 2026-05-07 12:44 | 50.83578 | 15.61329 | 23587 ft | 431 kts | 86° |
| 2026-05-07 12:44 | 50.84002 | 15.65999 | 22928 ft | 426 kts | 86° |